sensor_id;sensor_type;location;lat;lon;timestamp;temperature;humidity
17236;DHT22;8734;59.272;17.780;2023-06-19T00:00:19;16.80;99.90
17236;DHT22;8734;59.272;17.780;2023-06-19T00:02:49;16.80;99.90
17236;DHT22;8734;59.272;17.780;2023-06-19T00:05:18;16.80;99.90
17236;DHT22;8734;59.272;17.780;2023-06-19T00:07:46;16.80;99.90
17236;DHT22;8734;59.272;17.780;2023-06-19T00:10:15;16.80;99.90
17236;DHT22;8734;59.272;17.780;2023-06-19T00:12:43;16.80;99.90
17236;DHT22;8734;59.272;17.780;2023-06-19T00:15:11;16.80;99.90
17236;DHT22;8734;59.272;17.780;2023-06-19T00:17:40;16.80;99.90
17236;DHT22;8734;59.272;17.780;2023-06-19T00:20:10;16.80;99.90
17236;DHT22;8734;59.272;17.780;2023-06-19T00:22:40;16.80;99.90
17236;DHT22;8734;59.272;17.780;2023-06-19T00:25:08;16.80;99.90
17236;DHT22;8734;59.272;17.780;2023-06-19T00:27:37;16.80;99.90
17236;DHT22;8734;59.272;17.780;2023-06-19T00:30:06;16.80;99.90
17236;DHT22;8734;59.272;17.780;2023-06-19T00:32:35;16.70;99.90
17236;DHT22;8734;59.272;17.780;2023-06-19T00:35:15;16.70;99.90
17236;DHT22;8734;59.272;17.780;2023-06-19T00:37:45;16.70;99.90
17236;DHT22;8734;59.272;17.780;2023-06-19T00:40:19;16.70;99.90
17236;DHT22;8734;59.272;17.780;2023-06-19T00:42:49;16.70;99.90
17236;DHT22;8734;59.272;17.780;2023-06-19T00:45:18;16.60;99.90
17236;DHT22;8734;59.272;17.780;2023-06-19T00:47:46;16.60;99.90
17236;DHT22;8734;59.272;17.780;2023-06-19T00:50:16;16.70;99.90
17236;DHT22;8734;59.272;17.780;2023-06-19T00:52:45;16.70;99.90
17236;DHT22;8734;59.272;17.780;2023-06-19T00:55:13;16.70;99.90
17236;DHT22;8734;59.272;17.780;2023-06-19T00:57:43;16.70;99.90
17236;DHT22;8734;59.272;17.780;2023-06-19T01:00:12;16.70;99.90
17236;DHT22;8734;59.272;17.780;2023-06-19T01:02:40;16.60;99.90
17236;DHT22;8734;59.272;17.780;2023-06-19T01:05:09;16.70;99.90
17236;DHT22;8734;59.272;17.780;2023-06-19T01:07:44;16.70;99.90
17236;DHT22;8734;59.272;17.780;2023-06-19T01:10:19;16.70;99.90
17236;DHT22;8734;59.272;17.780;2023-06-19T01:12:52;16.60;99.90
17236;DHT22;8734;59.272;17.780;2023-06-19T01:15:23;16.60;99.90
17236;DHT22;8734;59.272;17.780;2023-06-19T01:17:53;16.60;99.90
17236;DHT22;8734;59.272;17.780;2023-06-19T01:20:21;16.60;99.90
17236;DHT22;8734;59.272;17.780;2023-06-19T01:22:52;16.60;99.90
17236;DHT22;8734;59.272;17.780;2023-06-19T01:25:24;16.70;99.90
17236;DHT22;8734;59.272;17.780;2023-06-19T01:27:52;16.60;99.90
17236;DHT22;8734;59.272;17.780;2023-06-19T01:30:21;16.60;99.90
17236;DHT22;8734;59.272;17.780;2023-06-19T01:32:53;16.60;99.90
17236;DHT22;8734;59.272;17.780;2023-06-19T01:35:25;16.60;99.90
17236;DHT22;8734;59.272;17.780;2023-06-19T01:37:56;16.60;99.90
17236;DHT22;8734;59.272;17.780;2023-06-19T01:40:27;16.60;99.90
17236;DHT22;8734;59.272;17.780;2023-06-19T01:42:59;16.60;99.90
17236;DHT22;8734;59.272;17.780;2023-06-19T01:45:29;16.60;99.90
17236;DHT22;8734;59.272;17.780;2023-06-19T01:47:57;16.60;99.90
17236;DHT22;8734;59.272;17.780;2023-06-19T01:50:26;16.70;99.90
17236;DHT22;8734;59.272;17.780;2023-06-19T01:52:56;16.60;99.90
17236;DHT22;8734;59.272;17.780;2023-06-19T01:55:24;16.60;99.90
17236;DHT22;8734;59.272;17.780;2023-06-19T01:57:52;16.60;99.90
17236;DHT22;8734;59.272;17.780;2023-06-19T02:00:21;16.60;99.90
17236;DHT22;8734;59.272;17.780;2023-06-19T02:02:49;16.60;99.90
17236;DHT22;8734;59.272;17.780;2023-06-19T02:05:18;16.60;99.90
17236;DHT22;8734;59.272;17.780;2023-06-19T02:07:46;16.60;99.90
17236;DHT22;8734;59.272;17.780;2023-06-19T02:10:16;16.60;99.90
17236;DHT22;8734;59.272;17.780;2023-06-19T02:12:44;16.60;99.90
17236;DHT22;8734;59.272;17.780;2023-06-19T02:15:12;16.60;99.90
17236;DHT22;8734;59.272;17.780;2023-06-19T02:17:41;16.60;99.90
17236;DHT22;8734;59.272;17.780;2023-06-19T02:20:10;16.60;99.90
17236;DHT22;8734;59.272;17.780;2023-06-19T02:22:42;16.50;99.90
17236;DHT22;8734;59.272;17.780;2023-06-19T02:25:10;16.50;99.90
17236;DHT22;8734;59.272;17.780;2023-06-19T02:27:39;16.50;99.90
17236;DHT22;8734;59.272;17.780;2023-06-19T02:30:08;16.50;99.90
17236;DHT22;8734;59.272;17.780;2023-06-19T02:32:37;16.50;99.90
17236;DHT22;8734;59.272;17.780;2023-06-19T02:35:07;16.50;99.90
17236;DHT22;8734;59.272;17.780;2023-06-19T02:37:36;16.50;99.90
17236;DHT22;8734;59.272;17.780;2023-06-19T02:40:06;16.60;99.90
17236;DHT22;8734;59.272;17.780;2023-06-19T02:42:36;16.50;99.90
17236;DHT22;8734;59.272;17.780;2023-06-19T02:45:06;16.50;99.90
17236;DHT22;8734;59.272;17.780;2023-06-19T02:47:35;16.50;99.90
17236;DHT22;8734;59.272;17.780;2023-06-19T02:50:04;16.50;99.90
17236;DHT22;8734;59.272;17.780;2023-06-19T02:52:32;16.50;99.90
17236;DHT22;8734;59.272;17.780;2023-06-19T02:55:01;16.50;99.90
17236;DHT22;8734;59.272;17.780;2023-06-19T02:57:29;16.50;99.90
17236;DHT22;8734;59.272;17.780;2023-06-19T02:59:57;16.50;99.90
17236;DHT22;8734;59.272;17.780;2023-06-19T03:02:27;16.50;99.90
17236;DHT22;8734;59.272;17.780;2023-06-19T03:04:55;16.50;99.90
17236;DHT22;8734;59.272;17.780;2023-06-19T03:07:24;16.50;99.90
17236;DHT22;8734;59.272;17.780;2023-06-19T03:09:55;16.50;99.90
17236;DHT22;8734;59.272;17.780;2023-06-19T03:12:23;16.50;99.90
17236;DHT22;8734;59.272;17.780;2023-06-19T03:14:52;16.60;99.90
17236;DHT22;8734;59.272;17.780;2023-06-19T03:17:20;16.60;99.90
17236;DHT22;8734;59.272;17.780;2023-06-19T03:19:49;16.60;99.90
17236;DHT22;8734;59.272;17.780;2023-06-19T03:22:19;16.60;99.90
17236;DHT22;8734;59.272;17.780;2023-06-19T03:24:48;16.60;99.90
17236;DHT22;8734;59.272;17.780;2023-06-19T03:27:16;16.60;99.90
17236;DHT22;8734;59.272;17.780;2023-06-19T03:29:44;16.60;99.90
17236;DHT22;8734;59.272;17.780;2023-06-19T03:32:13;16.60;99.90
17236;DHT22;8734;59.272;17.780;2023-06-19T03:34:41;16.60;99.90
17236;DHT22;8734;59.272;17.780;2023-06-19T03:37:11;16.60;99.90
17236;DHT22;8734;59.272;17.780;2023-06-19T03:39:39;16.60;99.90
17236;DHT22;8734;59.272;17.780;2023-06-19T03:42:08;16.60;99.90
17236;DHT22;8734;59.272;17.780;2023-06-19T03:44:36;16.50;99.90
17236;DHT22;8734;59.272;17.780;2023-06-19T03:47:05;16.50;99.90
17236;DHT22;8734;59.272;17.780;2023-06-19T03:49:33;16.50;99.90
17236;DHT22;8734;59.272;17.780;2023-06-19T03:52:02;16.50;99.90
17236;DHT22;8734;59.272;17.780;2023-06-19T03:54:31;16.50;99.90
17236;DHT22;8734;59.272;17.780;2023-06-19T03:57:00;16.50;99.90
17236;DHT22;8734;59.272;17.780;2023-06-19T03:59:29;16.50;99.90
17236;DHT22;8734;59.272;17.780;2023-06-19T04:01:57;16.50;99.90
17236;DHT22;8734;59.272;17.780;2023-06-19T04:04:25;16.50;99.90
17236;DHT22;8734;59.272;17.780;2023-06-19T04:06:54;16.50;99.90
17236;DHT22;8734;59.272;17.780;2023-06-19T04:09:22;16.50;99.90
17236;DHT22;8734;59.272;17.780;2023-06-19T04:11:52;16.50;99.90
17236;DHT22;8734;59.272;17.780;2023-06-19T04:14:20;16.60;99.90
17236;DHT22;8734;59.272;17.780;2023-06-19T04:16:50;16.60;99.90
17236;DHT22;8734;59.272;17.780;2023-06-19T04:19:18;16.70;99.90
17236;DHT22;8734;59.272;17.780;2023-06-19T04:21:47;16.70;99.90
17236;DHT22;8734;59.272;17.780;2023-06-19T04:24:15;16.70;99.90
17236;DHT22;8734;59.272;17.780;2023-06-19T04:26:43;16.70;99.90
17236;DHT22;8734;59.272;17.780;2023-06-19T04:29:13;16.80;99.90
17236;DHT22;8734;59.272;17.780;2023-06-19T04:31:44;16.90;99.90
17236;DHT22;8734;59.272;17.780;2023-06-19T04:34:16;16.90;99.90
17236;DHT22;8734;59.272;17.780;2023-06-19T04:36:48;16.90;99.90
17236;DHT22;8734;59.272;17.780;2023-06-19T04:39:16;17.00;99.90
17236;DHT22;8734;59.272;17.780;2023-06-19T04:41:44;16.90;99.90
17236;DHT22;8734;59.272;17.780;2023-06-19T04:44:14;16.90;99.90
17236;DHT22;8734;59.272;17.780;2023-06-19T04:46:43;16.80;99.90
17236;DHT22;8734;59.272;17.780;2023-06-19T04:49:12;16.90;99.90
17236;DHT22;8734;59.272;17.780;2023-06-19T04:51:41;16.80;99.90
17236;DHT22;8734;59.272;17.780;2023-06-19T04:54:09;16.80;99.90
17236;DHT22;8734;59.272;17.780;2023-06-19T04:56:37;16.90;99.90
17236;DHT22;8734;59.272;17.780;2023-06-19T04:59:06;17.00;99.90
17236;DHT22;8734;59.272;17.780;2023-06-19T05:01:36;17.00;99.90
17236;DHT22;8734;59.272;17.780;2023-06-19T05:04:07;17.10;99.90
17236;DHT22;8734;59.272;17.780;2023-06-19T05:06:36;17.20;99.90
17236;DHT22;8734;59.272;17.780;2023-06-19T05:09:04;17.20;99.90
17236;DHT22;8734;59.272;17.780;2023-06-19T05:11:33;17.30;99.90
17236;DHT22;8734;59.272;17.780;2023-06-19T05:14:01;17.30;99.90
17236;DHT22;8734;59.272;17.780;2023-06-19T05:16:30;17.20;99.90
17236;DHT22;8734;59.272;17.780;2023-06-19T05:19:03;17.30;99.90
17236;DHT22;8734;59.272;17.780;2023-06-19T05:21:32;17.30;99.90
17236;DHT22;8734;59.272;17.780;2023-06-19T05:24:00;17.40;99.90
17236;DHT22;8734;59.272;17.780;2023-06-19T05:26:29;17.40;99.90
17236;DHT22;8734;59.272;17.780;2023-06-19T05:28:57;17.40;99.90
17236;DHT22;8734;59.272;17.780;2023-06-19T05:31:25;17.50;99.90
17236;DHT22;8734;59.272;17.780;2023-06-19T05:33:54;17.60;99.90
17236;DHT22;8734;59.272;17.780;2023-06-19T05:36:24;17.70;99.90
17236;DHT22;8734;59.272;17.780;2023-06-19T05:38:52;18.00;99.90
17236;DHT22;8734;59.272;17.780;2023-06-19T05:41:21;18.10;99.90
17236;DHT22;8734;59.272;17.780;2023-06-19T05:43:50;18.20;99.90
17236;DHT22;8734;59.272;17.780;2023-06-19T05:46:18;18.20;99.90
17236;DHT22;8734;59.272;17.780;2023-06-19T05:48:47;18.30;99.90
17236;DHT22;8734;59.272;17.780;2023-06-19T05:51:15;18.40;99.90
17236;DHT22;8734;59.272;17.780;2023-06-19T05:53:45;18.60;99.90
17236;DHT22;8734;59.272;17.780;2023-06-19T05:56:14;18.80;99.90
17236;DHT22;8734;59.272;17.780;2023-06-19T05:58:42;18.80;99.90
17236;DHT22;8734;59.272;17.780;2023-06-19T06:01:10;18.90;99.90
17236;DHT22;8734;59.272;17.780;2023-06-19T06:03:39;19.00;99.90
17236;DHT22;8734;59.272;17.780;2023-06-19T06:06:07;19.00;99.90
17236;DHT22;8734;59.272;17.780;2023-06-19T06:08:35;19.00;99.90
17236;DHT22;8734;59.272;17.780;2023-06-19T06:11:05;18.90;99.90
17236;DHT22;8734;59.272;17.780;2023-06-19T06:13:34;18.90;99.90
17236;DHT22;8734;59.272;17.780;2023-06-19T06:16:02;18.80;99.90
17236;DHT22;8734;59.272;17.780;2023-06-19T06:18:31;18.60;99.90
17236;DHT22;8734;59.272;17.780;2023-06-19T06:21:00;18.40;99.90
17236;DHT22;8734;59.272;17.780;2023-06-19T06:23:28;18.40;99.90
17236;DHT22;8734;59.272;17.780;2023-06-19T06:25:56;18.30;99.90
17236;DHT22;8734;59.272;17.780;2023-06-19T06:28:31;18.20;99.90
17236;DHT22;8734;59.272;17.780;2023-06-19T06:30:59;18.30;99.90
17236;DHT22;8734;59.272;17.780;2023-06-19T06:33:28;18.20;99.90
17236;DHT22;8734;59.272;17.780;2023-06-19T06:35:57;18.30;99.90
17236;DHT22;8734;59.272;17.780;2023-06-19T06:38:26;18.30;99.90
17236;DHT22;8734;59.272;17.780;2023-06-19T06:40:54;18.40;99.90
17236;DHT22;8734;59.272;17.780;2023-06-19T06:43:24;18.40;99.90
17236;DHT22;8734;59.272;17.780;2023-06-19T06:45:54;18.50;99.90
17236;DHT22;8734;59.272;17.780;2023-06-19T06:48:23;18.50;99.90
17236;DHT22;8734;59.272;17.780;2023-06-19T06:50:51;18.60;99.90
17236;DHT22;8734;59.272;17.780;2023-06-19T06:53:25;18.60;99.90
17236;DHT22;8734;59.272;17.780;2023-06-19T06:55:55;18.70;99.90
17236;DHT22;8734;59.272;17.780;2023-06-19T06:58:24;18.70;99.90
17236;DHT22;8734;59.272;17.780;2023-06-19T07:00:54;18.80;99.90
17236;DHT22;8734;59.272;17.780;2023-06-19T07:03:23;19.00;99.90
17236;DHT22;8734;59.272;17.780;2023-06-19T07:05:51;19.20;99.90
17236;DHT22;8734;59.272;17.780;2023-06-19T07:08:20;19.20;99.90
17236;DHT22;8734;59.272;17.780;2023-06-19T07:10:48;19.30;99.90
17236;DHT22;8734;59.272;17.780;2023-06-19T07:13:16;19.30;99.90
17236;DHT22;8734;59.272;17.780;2023-06-19T07:15:45;19.30;99.90
17236;DHT22;8734;59.272;17.780;2023-06-19T07:18:15;19.20;99.90
17236;DHT22;8734;59.272;17.780;2023-06-19T07:20:43;19.20;99.90
17236;DHT22;8734;59.272;17.780;2023-06-19T07:23:11;19.20;99.90
17236;DHT22;8734;59.272;17.780;2023-06-19T07:25:39;19.10;99.90
17236;DHT22;8734;59.272;17.780;2023-06-19T07:28:08;19.00;99.90
17236;DHT22;8734;59.272;17.780;2023-06-19T07:30:36;19.00;99.90
17236;DHT22;8734;59.272;17.780;2023-06-19T07:33:05;18.90;99.90
17236;DHT22;8734;59.272;17.780;2023-06-19T07:35:34;19.00;99.90
17236;DHT22;8734;59.272;17.780;2023-06-19T07:38:03;19.10;99.90
17236;DHT22;8734;59.272;17.780;2023-06-19T07:40:31;19.20;99.90
17236;DHT22;8734;59.272;17.780;2023-06-19T07:42:59;19.40;99.90
17236;DHT22;8734;59.272;17.780;2023-06-19T07:45:28;19.50;99.90
17236;DHT22;8734;59.272;17.780;2023-06-19T07:47:56;19.50;99.90
17236;DHT22;8734;59.272;17.780;2023-06-19T07:50:25;19.60;99.90
17236;DHT22;8734;59.272;17.780;2023-06-19T07:52:56;19.70;99.90
17236;DHT22;8734;59.272;17.780;2023-06-19T07:55:24;19.60;99.90
17236;DHT22;8734;59.272;17.780;2023-06-19T07:57:53;19.60;99.90
17236;DHT22;8734;59.272;17.780;2023-06-19T08:00:23;19.70;99.90
17236;DHT22;8734;59.272;17.780;2023-06-19T08:02:52;19.70;99.90
17236;DHT22;8734;59.272;17.780;2023-06-19T08:05:21;19.70;99.90
17236;DHT22;8734;59.272;17.780;2023-06-19T08:07:49;19.70;99.90
17236;DHT22;8734;59.272;17.780;2023-06-19T08:10:19;19.80;99.90
17236;DHT22;8734;59.272;17.780;2023-06-19T08:12:48;19.90;99.90
17236;DHT22;8734;59.272;17.780;2023-06-19T08:15:19;19.90;99.90
17236;DHT22;8734;59.272;17.780;2023-06-19T08:17:48;20.00;99.90
17236;DHT22;8734;59.272;17.780;2023-06-19T08:20:16;20.10;99.90
17236;DHT22;8734;59.272;17.780;2023-06-19T08:22:44;20.20;99.90
17236;DHT22;8734;59.272;17.780;2023-06-19T08:25:13;20.40;99.90
17236;DHT22;8734;59.272;17.780;2023-06-19T08:27:42;20.50;99.90
17236;DHT22;8734;59.272;17.780;2023-06-19T08:30:12;20.60;99.90
17236;DHT22;8734;59.272;17.780;2023-06-19T08:32:40;20.80;99.90
17236;DHT22;8734;59.272;17.780;2023-06-19T08:35:08;20.80;99.90
17236;DHT22;8734;59.272;17.780;2023-06-19T08:37:37;20.90;99.90
17236;DHT22;8734;59.272;17.780;2023-06-19T08:40:06;20.80;99.90
17236;DHT22;8734;59.272;17.780;2023-06-19T08:42:36;20.70;99.90
17236;DHT22;8734;59.272;17.780;2023-06-19T08:45:08;20.70;99.90
17236;DHT22;8734;59.272;17.780;2023-06-19T08:47:36;20.60;99.90
17236;DHT22;8734;59.272;17.780;2023-06-19T08:50:06;20.90;99.90
17236;DHT22;8734;59.272;17.780;2023-06-19T08:52:34;21.30;99.90
17236;DHT22;8734;59.272;17.780;2023-06-19T08:55:03;21.50;99.90
17236;DHT22;8734;59.272;17.780;2023-06-19T08:57:35;21.70;99.90
17236;DHT22;8734;59.272;17.780;2023-06-19T09:00:04;21.70;99.90
17236;DHT22;8734;59.272;17.780;2023-06-19T09:02:40;22.00;99.90
17236;DHT22;8734;59.272;17.780;2023-06-19T09:05:11;22.30;99.90
17236;DHT22;8734;59.272;17.780;2023-06-19T09:07:40;22.90;99.90
17236;DHT22;8734;59.272;17.780;2023-06-19T09:10:14;23.40;99.90
17236;DHT22;8734;59.272;17.780;2023-06-19T09:12:43;24.00;99.90
17236;DHT22;8734;59.272;17.780;2023-06-19T09:15:12;24.60;99.90
17236;DHT22;8734;59.272;17.780;2023-06-19T09:17:42;24.90;99.90
17236;DHT22;8734;59.272;17.780;2023-06-19T09:20:11;25.30;99.90
17236;DHT22;8734;59.272;17.780;2023-06-19T09:22:39;25.70;99.90
17236;DHT22;8734;59.272;17.780;2023-06-19T09:25:08;25.70;99.90
17236;DHT22;8734;59.272;17.780;2023-06-19T09:27:38;25.30;99.90
17236;DHT22;8734;59.272;17.780;2023-06-19T09:30:06;24.80;99.90
17236;DHT22;8734;59.272;17.780;2023-06-19T09:32:35;24.50;99.90
17236;DHT22;8734;59.272;17.780;2023-06-19T09:35:05;24.60;99.90
17236;DHT22;8734;59.272;17.780;2023-06-19T09:37:33;24.20;99.90
17236;DHT22;8734;59.272;17.780;2023-06-19T09:40:03;23.90;99.90
17236;DHT22;8734;59.272;17.780;2023-06-19T09:42:38;23.80;99.90
17236;DHT22;8734;59.272;17.780;2023-06-19T09:45:08;24.00;99.90
17236;DHT22;8734;59.272;17.780;2023-06-19T09:47:38;24.30;99.90
17236;DHT22;8734;59.272;17.780;2023-06-19T09:50:11;24.60;99.90
17236;DHT22;8734;59.272;17.780;2023-06-19T09:52:40;24.50;99.90
17236;DHT22;8734;59.272;17.780;2023-06-19T09:55:10;24.50;99.90
17236;DHT22;8734;59.272;17.780;2023-06-19T09:57:40;24.60;99.90
17236;DHT22;8734;59.272;17.780;2023-06-19T10:00:10;24.80;99.90
17236;DHT22;8734;59.272;17.780;2023-06-19T10:02:40;25.10;99.90
17236;DHT22;8734;59.272;17.780;2023-06-19T10:05:11;25.30;99.90
17236;DHT22;8734;59.272;17.780;2023-06-19T10:07:43;25.60;99.90
17236;DHT22;8734;59.272;17.780;2023-06-19T10:10:22;25.50;99.90
17236;DHT22;8734;59.272;17.780;2023-06-19T10:12:51;25.20;99.90
17236;DHT22;8734;59.272;17.780;2023-06-19T10:15:21;24.90;99.90
17236;DHT22;8734;59.272;17.780;2023-06-19T10:17:50;25.00;99.90
17236;DHT22;8734;59.272;17.780;2023-06-19T10:20:26;25.20;99.90
17236;DHT22;8734;59.272;17.780;2023-06-19T10:23:01;25.20;99.90
17236;DHT22;8734;59.272;17.780;2023-06-19T10:25:33;25.20;99.90
17236;DHT22;8734;59.272;17.780;2023-06-19T10:28:02;25.30;99.90
17236;DHT22;8734;59.272;17.780;2023-06-19T10:30:33;25.40;99.90
17236;DHT22;8734;59.272;17.780;2023-06-19T10:33:02;25.20;99.90
17236;DHT22;8734;59.272;17.780;2023-06-19T10:35:39;25.00;99.90
17236;DHT22;8734;59.272;17.780;2023-06-19T10:38:08;25.10;99.90
17236;DHT22;8734;59.272;17.780;2023-06-19T10:40:37;25.10;99.90
17236;DHT22;8734;59.272;17.780;2023-06-19T10:43:05;24.90;99.90
17236;DHT22;8734;59.272;17.780;2023-06-19T10:45:33;24.80;99.90
17236;DHT22;8734;59.272;17.780;2023-06-19T10:48:03;24.60;99.90
17236;DHT22;8734;59.272;17.780;2023-06-19T10:50:35;24.50;99.90
17236;DHT22;8734;59.272;17.780;2023-06-19T10:53:06;24.40;99.90
17236;DHT22;8734;59.272;17.780;2023-06-19T10:55:35;24.40;99.90
17236;DHT22;8734;59.272;17.780;2023-06-19T10:58:04;24.40;99.90
17236;DHT22;8734;59.272;17.780;2023-06-19T11:00:33;24.40;99.90
17236;DHT22;8734;59.272;17.780;2023-06-19T11:03:01;24.30;99.90
17236;DHT22;8734;59.272;17.780;2023-06-19T11:05:30;24.20;99.90
17236;DHT22;8734;59.272;17.780;2023-06-19T11:07:59;24.10;99.90
17236;DHT22;8734;59.272;17.780;2023-06-19T11:10:29;23.80;99.90
17236;DHT22;8734;59.272;17.780;2023-06-19T11:12:58;23.70;99.90
17236;DHT22;8734;59.272;17.780;2023-06-19T11:15:30;23.60;99.90
17236;DHT22;8734;59.272;17.780;2023-06-19T11:17:59;23.60;99.90
17236;DHT22;8734;59.272;17.780;2023-06-19T11:20:28;23.50;99.90
17236;DHT22;8734;59.272;17.780;2023-06-19T11:22:58;23.20;99.90
17236;DHT22;8734;59.272;17.780;2023-06-19T11:25:36;22.90;99.90
17236;DHT22;8734;59.272;17.780;2023-06-19T11:28:10;22.60;99.90
17236;DHT22;8734;59.272;17.780;2023-06-19T11:30:41;22.10;99.90
17236;DHT22;8734;59.272;17.780;2023-06-19T11:33:17;21.70;99.90
17236;DHT22;8734;59.272;17.780;2023-06-19T11:35:49;21.50;99.90
17236;DHT22;8734;59.272;17.780;2023-06-19T11:38:19;21.30;99.90
17236;DHT22;8734;59.272;17.780;2023-06-19T11:40:49;21.10;99.90
17236;DHT22;8734;59.272;17.780;2023-06-19T11:43:24;21.00;99.90
17236;DHT22;8734;59.272;17.780;2023-06-19T11:45:54;21.00;99.90
17236;DHT22;8734;59.272;17.780;2023-06-19T11:48:27;21.00;99.90
17236;DHT22;8734;59.272;17.780;2023-06-19T11:50:56;21.00;99.90
17236;DHT22;8734;59.272;17.780;2023-06-19T11:53:25;21.00;99.90
17236;DHT22;8734;59.272;17.780;2023-06-19T11:55:55;21.10;99.90
17236;DHT22;8734;59.272;17.780;2023-06-19T11:58:24;21.10;99.90
17236;DHT22;8734;59.272;17.780;2023-06-19T12:00:53;21.20;99.90
17236;DHT22;8734;59.272;17.780;2023-06-19T12:03:23;21.30;99.90
17236;DHT22;8734;59.272;17.780;2023-06-19T12:05:52;21.40;99.90
17236;DHT22;8734;59.272;17.780;2023-06-19T12:08:20;21.40;99.90
17236;DHT22;8734;59.272;17.780;2023-06-19T12:10:48;21.60;99.90
17236;DHT22;8734;59.272;17.780;2023-06-19T12:13:20;21.60;99.90
17236;DHT22;8734;59.272;17.780;2023-06-19T12:15:48;21.60;99.90
17236;DHT22;8734;59.272;17.780;2023-06-19T12:18:20;21.50;99.90
17236;DHT22;8734;59.272;17.780;2023-06-19T12:20:48;21.60;99.90
17236;DHT22;8734;59.272;17.780;2023-06-19T12:23:16;21.60;99.90
17236;DHT22;8734;59.272;17.780;2023-06-19T12:25:44;21.80;99.90
17236;DHT22;8734;59.272;17.780;2023-06-19T12:28:13;22.00;99.90
17236;DHT22;8734;59.272;17.780;2023-06-19T12:30:47;22.10;99.90
17236;DHT22;8734;59.272;17.780;2023-06-19T12:33:18;22.20;99.90
17236;DHT22;8734;59.272;17.780;2023-06-19T12:35:47;22.20;99.90
17236;DHT22;8734;59.272;17.780;2023-06-19T12:38:16;22.10;99.90
17236;DHT22;8734;59.272;17.780;2023-06-19T12:40:45;22.10;99.90
17236;DHT22;8734;59.272;17.780;2023-06-19T12:43:13;22.10;99.90
17236;DHT22;8734;59.272;17.780;2023-06-19T12:45:41;21.90;99.90
17236;DHT22;8734;59.272;17.780;2023-06-19T12:48:11;21.60;99.90
17236;DHT22;8734;59.272;17.780;2023-06-19T12:50:40;21.60;99.90
17236;DHT22;8734;59.272;17.780;2023-06-19T12:53:08;21.60;99.90
17236;DHT22;8734;59.272;17.780;2023-06-19T12:55:38;21.70;99.90
17236;DHT22;8734;59.272;17.780;2023-06-19T12:58:26;21.40;99.90
17236;DHT22;8734;59.272;17.780;2023-06-19T13:00:55;21.10;99.90
17236;DHT22;8734;59.272;17.780;2023-06-19T13:03:25;21.00;99.90
17236;DHT22;8734;59.272;17.780;2023-06-19T13:05:53;21.10;99.90
17236;DHT22;8734;59.272;17.780;2023-06-19T13:08:22;21.30;99.90
17236;DHT22;8734;59.272;17.780;2023-06-19T13:10:50;21.60;99.90
17236;DHT22;8734;59.272;17.780;2023-06-19T13:13:18;21.50;99.90
17236;DHT22;8734;59.272;17.780;2023-06-19T13:15:47;21.50;99.90
17236;DHT22;8734;59.272;17.780;2023-06-19T13:18:15;21.60;99.90
17236;DHT22;8734;59.272;17.780;2023-06-19T13:20:45;21.70;99.90
17236;DHT22;8734;59.272;17.780;2023-06-19T13:23:15;21.50;99.90
17236;DHT22;8734;59.272;17.780;2023-06-19T13:25:43;21.40;99.90
17236;DHT22;8734;59.272;17.780;2023-06-19T13:28:11;21.40;99.90
17236;DHT22;8734;59.272;17.780;2023-06-19T13:30:40;21.40;99.90
17236;DHT22;8734;59.272;17.780;2023-06-19T13:33:08;21.50;99.90
17236;DHT22;8734;59.272;17.780;2023-06-19T13:35:38;21.30;99.90
17236;DHT22;8734;59.272;17.780;2023-06-19T13:38:08;21.20;99.90
17236;DHT22;8734;59.272;17.780;2023-06-19T13:40:36;21.00;99.90
17236;DHT22;8734;59.272;17.780;2023-06-19T13:43:04;20.90;99.90
17236;DHT22;8734;59.272;17.780;2023-06-19T13:45:33;20.80;99.90
17236;DHT22;8734;59.272;17.780;2023-06-19T13:48:02;20.90;99.90
17236;DHT22;8734;59.272;17.780;2023-06-19T13:50:30;21.10;99.90
17236;DHT22;8734;59.272;17.780;2023-06-19T13:52:59;21.10;99.90
17236;DHT22;8734;59.272;17.780;2023-06-19T13:55:30;21.00;99.90
17236;DHT22;8734;59.272;17.780;2023-06-19T13:57:58;21.10;99.90
17236;DHT22;8734;59.272;17.780;2023-06-19T14:00:26;21.20;99.90
17236;DHT22;8734;59.272;17.780;2023-06-19T14:02:55;21.00;99.90
17236;DHT22;8734;59.272;17.780;2023-06-19T14:05:23;21.10;99.90
17236;DHT22;8734;59.272;17.780;2023-06-19T14:07:54;21.20;99.90
17236;DHT22;8734;59.272;17.780;2023-06-19T14:10:23;21.20;99.90
17236;DHT22;8734;59.272;17.780;2023-06-19T14:12:53;21.30;99.90
17236;DHT22;8734;59.272;17.780;2023-06-19T14:15:21;21.50;99.90
17236;DHT22;8734;59.272;17.780;2023-06-19T14:17:50;21.40;99.90
17236;DHT22;8734;59.272;17.780;2023-06-19T14:20:18;21.40;99.90
17236;DHT22;8734;59.272;17.780;2023-06-19T14:22:47;21.60;99.90
17236;DHT22;8734;59.272;17.780;2023-06-19T14:25:16;21.50;99.90
17236;DHT22;8734;59.272;17.780;2023-06-19T14:27:44;21.40;99.90
17236;DHT22;8734;59.272;17.780;2023-06-19T14:30:14;21.40;99.90
17236;DHT22;8734;59.272;17.780;2023-06-19T14:32:43;21.10;99.90
17236;DHT22;8734;59.272;17.780;2023-06-19T14:35:11;21.20;99.90
17236;DHT22;8734;59.272;17.780;2023-06-19T14:37:39;21.30;99.90
17236;DHT22;8734;59.272;17.780;2023-06-19T14:40:09;21.40;99.90
17236;DHT22;8734;59.272;17.780;2023-06-19T14:42:37;21.30;99.90
17236;DHT22;8734;59.272;17.780;2023-06-19T14:45:07;21.00;99.90
17236;DHT22;8734;59.272;17.780;2023-06-19T14:47:37;21.00;99.90
17236;DHT22;8734;59.272;17.780;2023-06-19T14:50:07;21.10;99.90
17236;DHT22;8734;59.272;17.780;2023-06-19T14:52:35;21.10;99.90
17236;DHT22;8734;59.272;17.780;2023-06-19T14:55:04;21.10;99.90
17236;DHT22;8734;59.272;17.780;2023-06-19T14:57:33;21.00;99.90
17236;DHT22;8734;59.272;17.780;2023-06-19T15:00:01;21.00;99.90
17236;DHT22;8734;59.272;17.780;2023-06-19T15:02:32;20.90;99.90
17236;DHT22;8734;59.272;17.780;2023-06-19T15:05:09;20.90;99.90
17236;DHT22;8734;59.272;17.780;2023-06-19T15:07:37;20.80;99.90
17236;DHT22;8734;59.272;17.780;2023-06-19T15:10:06;20.80;99.90
17236;DHT22;8734;59.272;17.780;2023-06-19T15:12:34;20.60;99.90
17236;DHT22;8734;59.272;17.780;2023-06-19T15:15:03;20.40;99.90
17236;DHT22;8734;59.272;17.780;2023-06-19T15:17:32;20.50;99.90
17236;DHT22;8734;59.272;17.780;2023-06-19T15:20:01;20.50;99.90
17236;DHT22;8734;59.272;17.780;2023-06-19T15:22:31;20.60;99.90
17236;DHT22;8734;59.272;17.780;2023-06-19T15:24:59;20.80;99.90
17236;DHT22;8734;59.272;17.780;2023-06-19T15:27:28;21.00;99.90
17236;DHT22;8734;59.272;17.780;2023-06-19T15:29:56;21.30;99.90
17236;DHT22;8734;59.272;17.780;2023-06-19T15:32:25;21.70;99.90
17236;DHT22;8734;59.272;17.780;2023-06-19T15:34:53;21.90;99.90
17236;DHT22;8734;59.272;17.780;2023-06-19T15:37:22;21.80;99.90
17236;DHT22;8734;59.272;17.780;2023-06-19T15:39:52;21.70;99.90
17236;DHT22;8734;59.272;17.780;2023-06-19T15:42:22;21.60;99.90